sensor_id;sensor_type;location;lat;lon;timestamp;temperature;humidity
30648;DHT22;17683;53.360;9.736;2023-06-22T00:00:55;16.80;99.90
30648;DHT22;17683;53.360;9.736;2023-06-22T00:03:22;16.80;99.90
30648;DHT22;17683;53.360;9.736;2023-06-22T00:05:50;16.90;99.90
30648;DHT22;17683;53.360;9.736;2023-06-22T00:08:16;16.90;99.90
30648;DHT22;17683;53.360;9.736;2023-06-22T00:10:42;16.80;99.90
30648;DHT22;17683;53.360;9.736;2023-06-22T00:13:09;16.80;99.90
30648;DHT22;17683;53.360;9.736;2023-06-22T00:15:37;16.80;99.90
30648;DHT22;17683;53.360;9.736;2023-06-22T00:18:04;16.80;99.90
30648;DHT22;17683;53.360;9.736;2023-06-22T00:20:30;16.80;99.90
30648;DHT22;17683;53.360;9.736;2023-06-22T00:22:58;16.80;99.90
30648;DHT22;17683;53.360;9.736;2023-06-22T00:25:25;16.70;99.90
30648;DHT22;17683;53.360;9.736;2023-06-22T00:27:50;16.70;99.90
30648;DHT22;17683;53.360;9.736;2023-06-22T00:30:17;16.70;99.90
30648;DHT22;17683;53.360;9.736;2023-06-22T00:32:43;16.70;99.90
30648;DHT22;17683;53.360;9.736;2023-06-22T00:35:11;16.60;99.90
30648;DHT22;17683;53.360;9.736;2023-06-22T00:37:37;16.60;99.90
30648;DHT22;17683;53.360;9.736;2023-06-22T00:40:06;16.60;99.90
30648;DHT22;17683;53.360;9.736;2023-06-22T00:42:34;16.60;99.90
30648;DHT22;17683;53.360;9.736;2023-06-22T00:45:00;16.60;99.90
30648;DHT22;17683;53.360;9.736;2023-06-22T00:47:26;16.60;99.90
30648;DHT22;17683;53.360;9.736;2023-06-22T00:49:52;16.60;99.90
30648;DHT22;17683;53.360;9.736;2023-06-22T00:52:20;16.60;99.90
30648;DHT22;17683;53.360;9.736;2023-06-22T00:54:51;16.60;99.90
30648;DHT22;17683;53.360;9.736;2023-06-22T00:57:17;16.60;99.90
30648;DHT22;17683;53.360;9.736;2023-06-22T00:59:44;16.50;99.90
30648;DHT22;17683;53.360;9.736;2023-06-22T01:02:11;16.50;99.90
30648;DHT22;17683;53.360;9.736;2023-06-22T01:04:38;16.60;99.90
30648;DHT22;17683;53.360;9.736;2023-06-22T01:12:31;16.40;99.90
30648;DHT22;17683;53.360;9.736;2023-06-22T01:15:07;16.30;99.90
30648;DHT22;17683;53.360;9.736;2023-06-22T01:17:35;16.20;99.90
30648;DHT22;17683;53.360;9.736;2023-06-22T01:20:02;16.30;99.90
30648;DHT22;17683;53.360;9.736;2023-06-22T01:22:33;16.30;99.90
30648;DHT22;17683;53.360;9.736;2023-06-22T01:29:57;16.30;99.90
30648;DHT22;17683;53.360;9.736;2023-06-22T01:32:32;16.30;99.90
30648;DHT22;17683;53.360;9.736;2023-06-22T01:35:00;16.30;99.90
30648;DHT22;17683;53.360;9.736;2023-06-22T01:37:30;16.20;99.90
30648;DHT22;17683;53.360;9.736;2023-06-22T01:39:58;16.20;99.90
30648;DHT22;17683;53.360;9.736;2023-06-22T01:42:25;16.20;99.90
30648;DHT22;17683;53.360;9.736;2023-06-22T01:44:52;16.20;99.90
30648;DHT22;17683;53.360;9.736;2023-06-22T01:47:23;16.20;99.90
30648;DHT22;17683;53.360;9.736;2023-06-22T01:49:50;16.20;99.90
30648;DHT22;17683;53.360;9.736;2023-06-22T01:52:19;16.20;99.90
30648;DHT22;17683;53.360;9.736;2023-06-22T01:54:46;16.10;99.90
30648;DHT22;17683;53.360;9.736;2023-06-22T01:57:12;16.20;99.90
30648;DHT22;17683;53.360;9.736;2023-06-22T02:02:21;16.20;99.90
30648;DHT22;17683;53.360;9.736;2023-06-22T02:05:21;16.10;99.90
30648;DHT22;17683;53.360;9.736;2023-06-22T02:10:34;16.00;99.90
30648;DHT22;17683;53.360;9.736;2023-06-22T02:13:04;16.00;99.90
30648;DHT22;17683;53.360;9.736;2023-06-22T02:15:31;16.00;99.90
30648;DHT22;17683;53.360;9.736;2023-06-22T02:17:57;15.90;99.90
30648;DHT22;17683;53.360;9.736;2023-06-22T02:20:24;15.90;99.90
30648;DHT22;17683;53.360;9.736;2023-06-22T02:22:49;15.90;99.90
30648;DHT22;17683;53.360;9.736;2023-06-22T02:25:15;15.90;99.90
30648;DHT22;17683;53.360;9.736;2023-06-22T02:27:41;15.80;99.90
30648;DHT22;17683;53.360;9.736;2023-06-22T02:30:10;15.70;99.90
30648;DHT22;17683;53.360;9.736;2023-06-22T02:32:36;15.80;99.90
30648;DHT22;17683;53.360;9.736;2023-06-22T02:35:02;15.80;99.90
30648;DHT22;17683;53.360;9.736;2023-06-22T02:37:32;15.70;99.90
30648;DHT22;17683;53.360;9.736;2023-06-22T02:39:57;15.60;99.90
30648;DHT22;17683;53.360;9.736;2023-06-22T02:42:23;15.60;99.90
30648;DHT22;17683;53.360;9.736;2023-06-22T02:44:49;15.70;99.90
30648;DHT22;17683;53.360;9.736;2023-06-22T02:47:15;15.60;99.90
30648;DHT22;17683;53.360;9.736;2023-06-22T02:49:41;15.60;99.90
30648;DHT22;17683;53.360;9.736;2023-06-22T02:52:07;15.60;99.90
30648;DHT22;17683;53.360;9.736;2023-06-22T02:54:33;15.60;99.90
30648;DHT22;17683;53.360;9.736;2023-06-22T02:56:59;15.60;99.90
30648;DHT22;17683;53.360;9.736;2023-06-22T02:59:28;15.60;99.90
30648;DHT22;17683;53.360;9.736;2023-06-22T03:01:54;15.50;99.90
30648;DHT22;17683;53.360;9.736;2023-06-22T03:04:19;15.50;99.90
30648;DHT22;17683;53.360;9.736;2023-06-22T03:06:45;15.40;99.90
30648;DHT22;17683;53.360;9.736;2023-06-22T03:09:17;15.40;99.90
30648;DHT22;17683;53.360;9.736;2023-06-22T03:11:42;15.40;99.90
30648;DHT22;17683;53.360;9.736;2023-06-22T03:14:08;15.40;99.90
30648;DHT22;17683;53.360;9.736;2023-06-22T03:16:34;15.40;99.90
30648;DHT22;17683;53.360;9.736;2023-06-22T03:18:59;15.40;99.90
30648;DHT22;17683;53.360;9.736;2023-06-22T03:21:28;15.30;99.90
30648;DHT22;17683;53.360;9.736;2023-06-22T03:23:54;15.30;99.90
30648;DHT22;17683;53.360;9.736;2023-06-22T03:26:20;15.40;99.90
30648;DHT22;17683;53.360;9.736;2023-06-22T03:28:46;15.40;99.90
30648;DHT22;17683;53.360;9.736;2023-06-22T03:31:12;15.40;99.90
30648;DHT22;17683;53.360;9.736;2023-06-22T03:33:37;15.40;99.90
30648;DHT22;17683;53.360;9.736;2023-06-22T03:36:03;15.40;99.90
30648;DHT22;17683;53.360;9.736;2023-06-22T03:38:29;15.40;99.90
30648;DHT22;17683;53.360;9.736;2023-06-22T03:40:55;15.50;99.90
30648;DHT22;17683;53.360;9.736;2023-06-22T03:43:20;15.50;99.90
30648;DHT22;17683;53.360;9.736;2023-06-22T03:45:46;15.40;99.90
30648;DHT22;17683;53.360;9.736;2023-06-22T03:48:12;15.40;99.90
30648;DHT22;17683;53.360;9.736;2023-06-22T03:50:38;15.60;99.90
30648;DHT22;17683;53.360;9.736;2023-06-22T03:53:03;15.50;99.90
30648;DHT22;17683;53.360;9.736;2023-06-22T03:55:29;15.60;99.90
30648;DHT22;17683;53.360;9.736;2023-06-22T03:57:55;15.60;99.90
30648;DHT22;17683;53.360;9.736;2023-06-22T04:00:23;15.70;99.90
30648;DHT22;17683;53.360;9.736;2023-06-22T04:02:49;15.70;99.90
30648;DHT22;17683;53.360;9.736;2023-06-22T04:05:15;15.70;99.90
30648;DHT22;17683;53.360;9.736;2023-06-22T04:07:42;15.80;99.90
30648;DHT22;17683;53.360;9.736;2023-06-22T04:10:08;15.80;99.90
30648;DHT22;17683;53.360;9.736;2023-06-22T04:12:34;15.80;99.90
30648;DHT22;17683;53.360;9.736;2023-06-22T04:15:00;15.90;99.90
30648;DHT22;17683;53.360;9.736;2023-06-22T04:17:25;15.90;99.90
30648;DHT22;17683;53.360;9.736;2023-06-22T04:19:51;16.00;99.90
30648;DHT22;17683;53.360;9.736;2023-06-22T04:22:17;16.10;99.90
30648;DHT22;17683;53.360;9.736;2023-06-22T04:24:44;16.10;99.90
30648;DHT22;17683;53.360;9.736;2023-06-22T04:27:09;16.20;99.90
30648;DHT22;17683;53.360;9.736;2023-06-22T04:29:35;16.20;99.90
30648;DHT22;17683;53.360;9.736;2023-06-22T04:32:01;16.20;99.90
30648;DHT22;17683;53.360;9.736;2023-06-22T04:34:31;16.30;99.90
30648;DHT22;17683;53.360;9.736;2023-06-22T04:36:57;16.30;99.90
30648;DHT22;17683;53.360;9.736;2023-06-22T04:39:23;16.40;99.90
30648;DHT22;17683;53.360;9.736;2023-06-22T04:41:50;16.40;99.90
30648;DHT22;17683;53.360;9.736;2023-06-22T04:44:18;16.40;99.90
30648;DHT22;17683;53.360;9.736;2023-06-22T04:46:50;16.50;99.90
30648;DHT22;17683;53.360;9.736;2023-06-22T04:49:20;16.60;99.90
30648;DHT22;17683;53.360;9.736;2023-06-22T04:51:46;16.60;99.90
30648;DHT22;17683;53.360;9.736;2023-06-22T04:54:12;16.70;99.90
30648;DHT22;17683;53.360;9.736;2023-06-22T04:56:37;16.80;99.90
30648;DHT22;17683;53.360;9.736;2023-06-22T04:59:06;16.80;99.90
30648;DHT22;17683;53.360;9.736;2023-06-22T05:01:32;16.90;99.90
30648;DHT22;17683;53.360;9.736;2023-06-22T05:03:58;17.00;99.90
30648;DHT22;17683;53.360;9.736;2023-06-22T05:06:26;17.00;99.90
30648;DHT22;17683;53.360;9.736;2023-06-22T05:08:57;17.10;99.90
30648;DHT22;17683;53.360;9.736;2023-06-22T05:11:26;17.20;99.90
30648;DHT22;17683;53.360;9.736;2023-06-22T05:13:52;17.20;99.90
30648;DHT22;17683;53.360;9.736;2023-06-22T05:16:18;17.30;99.90
30648;DHT22;17683;53.360;9.736;2023-06-22T05:18:53;17.40;99.90
30648;DHT22;17683;53.360;9.736;2023-06-22T05:21:26;17.50;99.90
30648;DHT22;17683;53.360;9.736;2023-06-22T05:23:56;17.50;99.90
30648;DHT22;17683;53.360;9.736;2023-06-22T05:26:26;17.70;99.90
30648;DHT22;17683;53.360;9.736;2023-06-22T05:28:52;17.90;99.90
30648;DHT22;17683;53.360;9.736;2023-06-22T05:31:18;18.00;99.90
30648;DHT22;17683;53.360;9.736;2023-06-22T05:33:48;18.20;99.90
30648;DHT22;17683;53.360;9.736;2023-06-22T05:36:15;18.30;99.90
30648;DHT22;17683;53.360;9.736;2023-06-22T05:38:41;18.50;99.90
30648;DHT22;17683;53.360;9.736;2023-06-22T05:41:07;18.60;99.90
30648;DHT22;17683;53.360;9.736;2023-06-22T05:43:33;18.70;99.90
30648;DHT22;17683;53.360;9.736;2023-06-22T05:46:00;18.90;99.90
30648;DHT22;17683;53.360;9.736;2023-06-22T05:48:27;19.10;99.90
30648;DHT22;17683;53.360;9.736;2023-06-22T05:50:53;19.20;99.90
30648;DHT22;17683;53.360;9.736;2023-06-22T05:53:19;19.20;99.90
30648;DHT22;17683;53.360;9.736;2023-06-22T05:55:45;19.40;99.90
30648;DHT22;17683;53.360;9.736;2023-06-22T05:58:11;19.70;99.90
30648;DHT22;17683;53.360;9.736;2023-06-22T06:00:38;20.00;99.90
30648;DHT22;17683;53.360;9.736;2023-06-22T06:03:05;20.20;99.90
30648;DHT22;17683;53.360;9.736;2023-06-22T06:05:34;20.50;99.90
30648;DHT22;17683;53.360;9.736;2023-06-22T06:08:01;20.70;99.90
30648;DHT22;17683;53.360;9.736;2023-06-22T06:10:27;20.80;99.90
30648;DHT22;17683;53.360;9.736;2023-06-22T06:12:55;20.90;99.90
30648;DHT22;17683;53.360;9.736;2023-06-22T06:15:21;21.00;99.90
30648;DHT22;17683;53.360;9.736;2023-06-22T06:17:48;21.10;99.90
30648;DHT22;17683;53.360;9.736;2023-06-22T06:20:19;21.30;99.90
30648;DHT22;17683;53.360;9.736;2023-06-22T06:22:45;21.50;99.90
30648;DHT22;17683;53.360;9.736;2023-06-22T06:25:10;21.70;99.90
30648;DHT22;17683;53.360;9.736;2023-06-22T06:27:42;21.90;99.90
30648;DHT22;17683;53.360;9.736;2023-06-22T06:30:08;22.10;99.90
30648;DHT22;17683;53.360;9.736;2023-06-22T06:32:34;22.30;99.90
30648;DHT22;17683;53.360;9.736;2023-06-22T06:34:59;22.40;99.90
30648;DHT22;17683;53.360;9.736;2023-06-22T06:37:25;22.70;99.90
30648;DHT22;17683;53.360;9.736;2023-06-22T06:39:50;22.90;99.90
30648;DHT22;17683;53.360;9.736;2023-06-22T06:42:16;23.10;99.90
30648;DHT22;17683;53.360;9.736;2023-06-22T06:44:42;23.20;99.90
30648;DHT22;17683;53.360;9.736;2023-06-22T06:47:07;23.50;99.90
30648;DHT22;17683;53.360;9.736;2023-06-22T06:49:33;23.80;99.90
30648;DHT22;17683;53.360;9.736;2023-06-22T06:51:59;24.00;99.90
30648;DHT22;17683;53.360;9.736;2023-06-22T06:54:25;24.20;99.90
30648;DHT22;17683;53.360;9.736;2023-06-22T06:56:50;24.30;99.90
30648;DHT22;17683;53.360;9.736;2023-06-22T06:59:16;24.20;99.90
30648;DHT22;17683;53.360;9.736;2023-06-22T07:01:42;24.10;99.90
30648;DHT22;17683;53.360;9.736;2023-06-22T07:04:09;24.10;99.90
30648;DHT22;17683;53.360;9.736;2023-06-22T07:06:35;23.80;99.90
30648;DHT22;17683;53.360;9.736;2023-06-22T07:09:01;23.90;99.90
30648;DHT22;17683;53.360;9.736;2023-06-22T07:11:28;23.80;99.90
30648;DHT22;17683;53.360;9.736;2023-06-22T07:13:54;23.80;99.90
30648;DHT22;17683;53.360;9.736;2023-06-22T07:16:20;23.80;99.90
30648;DHT22;17683;53.360;9.736;2023-06-22T07:18:46;23.80;99.90
30648;DHT22;17683;53.360;9.736;2023-06-22T07:21:12;23.80;99.90
30648;DHT22;17683;53.360;9.736;2023-06-22T07:23:37;24.00;99.90
30648;DHT22;17683;53.360;9.736;2023-06-22T07:26:03;24.00;99.90
30648;DHT22;17683;53.360;9.736;2023-06-22T07:28:31;24.10;99.90
30648;DHT22;17683;53.360;9.736;2023-06-22T07:31:02;24.30;99.90
30648;DHT22;17683;53.360;9.736;2023-06-22T07:33:29;24.50;99.90
30648;DHT22;17683;53.360;9.736;2023-06-22T07:35:55;24.60;99.90
30648;DHT22;17683;53.360;9.736;2023-06-22T07:38:21;24.90;99.90
30648;DHT22;17683;53.360;9.736;2023-06-22T07:40:47;25.00;99.90
30648;DHT22;17683;53.360;9.736;2023-06-22T07:43:12;25.00;98.70
30648;DHT22;17683;53.360;9.736;2023-06-22T07:45:38;25.20;98.40
30648;DHT22;17683;53.360;9.736;2023-06-22T07:48:06;25.30;98.80
30648;DHT22;17683;53.360;9.736;2023-06-22T07:50:32;25.40;99.50
30648;DHT22;17683;53.360;9.736;2023-06-22T07:52:58;25.40;98.30
30648;DHT22;17683;53.360;9.736;2023-06-22T07:55:23;25.60;98.90
30648;DHT22;17683;53.360;9.736;2023-06-22T07:57:49;25.40;98.00
30648;DHT22;17683;53.360;9.736;2023-06-22T08:00:17;25.20;98.20
30648;DHT22;17683;53.360;9.736;2023-06-22T08:02:45;25.30;99.00
30648;DHT22;17683;53.360;9.736;2023-06-22T08:05:11;25.10;98.40
30648;DHT22;17683;53.360;9.736;2023-06-22T08:07:38;25.20;98.80
30648;DHT22;17683;53.360;9.736;2023-06-22T08:10:05;25.30;98.30
30648;DHT22;17683;53.360;9.736;2023-06-22T08:12:31;25.40;97.50
30648;DHT22;17683;53.360;9.736;2023-06-22T08:14:57;25.40;97.80
30648;DHT22;17683;53.360;9.736;2023-06-22T08:17:24;25.40;97.80
30648;DHT22;17683;53.360;9.736;2023-06-22T08:19:50;25.70;98.00
30648;DHT22;17683;53.360;9.736;2023-06-22T08:22:16;25.70;97.20
30648;DHT22;17683;53.360;9.736;2023-06-22T08:24:42;25.70;96.90
30648;DHT22;17683;53.360;9.736;2023-06-22T08:27:09;25.80;97.60
30648;DHT22;17683;53.360;9.736;2023-06-22T08:29:35;25.90;96.60
30648;DHT22;17683;53.360;9.736;2023-06-22T08:32:02;25.90;96.60
30648;DHT22;17683;53.360;9.736;2023-06-22T08:34:28;26.20;96.90
30648;DHT22;17683;53.360;9.736;2023-06-22T08:36:54;26.30;95.90
30648;DHT22;17683;53.360;9.736;2023-06-22T08:39:20;26.40;96.50
30648;DHT22;17683;53.360;9.736;2023-06-22T08:41:47;26.60;95.40
30648;DHT22;17683;53.360;9.736;2023-06-22T08:44:13;26.50;96.00
30648;DHT22;17683;53.360;9.736;2023-06-22T08:46:39;26.60;95.80
30648;DHT22;17683;53.360;9.736;2023-06-22T08:49:06;26.80;95.40
30648;DHT22;17683;53.360;9.736;2023-06-22T08:51:32;27.00;96.20
30648;DHT22;17683;53.360;9.736;2023-06-22T08:54:06;27.20;95.90
30648;DHT22;17683;53.360;9.736;2023-06-22T08:56:31;27.10;94.30
30648;DHT22;17683;53.360;9.736;2023-06-22T08:58:57;27.10;95.00
30648;DHT22;17683;53.360;9.736;2023-06-22T09:01:23;27.20;94.00
30648;DHT22;17683;53.360;9.736;2023-06-22T09:03:49;27.10;94.20
30648;DHT22;17683;53.360;9.736;2023-06-22T09:06:22;27.00;94.20
30648;DHT22;17683;53.360;9.736;2023-06-22T09:08:48;27.20;93.90
30648;DHT22;17683;53.360;9.736;2023-06-22T09:11:14;27.20;94.00
30648;DHT22;17683;53.360;9.736;2023-06-22T09:13:40;27.50;94.90
30648;DHT22;17683;53.360;9.736;2023-06-22T09:16:06;27.70;94.10
30648;DHT22;17683;53.360;9.736;2023-06-22T09:18:33;27.60;93.80
30648;DHT22;17683;53.360;9.736;2023-06-22T09:20:59;27.70;93.70
30648;DHT22;17683;53.360;9.736;2023-06-22T09:23:25;27.80;94.20
30648;DHT22;17683;53.360;9.736;2023-06-22T09:25:50;28.00;93.80
30648;DHT22;17683;53.360;9.736;2023-06-22T09:28:16;28.10;93.60
30648;DHT22;17683;53.360;9.736;2023-06-22T09:30:45;28.20;93.60
30648;DHT22;17683;53.360;9.736;2023-06-22T09:33:10;28.20;93.00
30648;DHT22;17683;53.360;9.736;2023-06-22T09:35:36;28.30;94.40
30648;DHT22;17683;53.360;9.736;2023-06-22T09:38:02;28.50;93.90
30648;DHT22;17683;53.360;9.736;2023-06-22T09:40:28;28.40;92.90
30648;DHT22;17683;53.360;9.736;2023-06-22T09:42:54;28.70;94.00
30648;DHT22;17683;53.360;9.736;2023-06-22T09:45:19;28.80;94.00
30648;DHT22;17683;53.360;9.736;2023-06-22T09:47:45;28.90;93.40
30648;DHT22;17683;53.360;9.736;2023-06-22T09:50:11;28.80;92.40
30648;DHT22;17683;53.360;9.736;2023-06-22T09:52:37;28.70;91.80
30648;DHT22;17683;53.360;9.736;2023-06-22T09:55:03;28.90;93.40
30648;DHT22;17683;53.360;9.736;2023-06-22T09:57:29;28.90;93.30
30648;DHT22;17683;53.360;9.736;2023-06-22T09:59:55;28.70;92.20
30648;DHT22;17683;53.360;9.736;2023-06-22T10:02:21;28.90;92.90
30648;DHT22;17683;53.360;9.736;2023-06-22T10:04:48;29.10;92.90
30648;DHT22;17683;53.360;9.736;2023-06-22T10:07:13;29.20;92.70
30648;DHT22;17683;53.360;9.736;2023-06-22T10:09:39;29.10;92.80
30648;DHT22;17683;53.360;9.736;2023-06-22T10:12:05;28.90;92.20
30648;DHT22;17683;53.360;9.736;2023-06-22T10:14:31;29.00;92.80
30648;DHT22;17683;53.360;9.736;2023-06-22T10:16:57;29.20;92.60
30648;DHT22;17683;53.360;9.736;2023-06-22T10:19:23;29.10;92.20
30648;DHT22;17683;53.360;9.736;2023-06-22T10:21:48;29.10;93.00
30648;DHT22;17683;53.360;9.736;2023-06-22T10:24:14;29.30;93.00
30648;DHT22;17683;53.360;9.736;2023-06-22T10:26:40;29.40;92.80
30648;DHT22;17683;53.360;9.736;2023-06-22T10:29:05;29.30;92.60
30648;DHT22;17683;53.360;9.736;2023-06-22T10:31:31;29.30;92.10
30648;DHT22;17683;53.360;9.736;2023-06-22T10:33:57;29.20;92.30
30648;DHT22;17683;53.360;9.736;2023-06-22T10:36:23;29.50;92.60
30648;DHT22;17683;53.360;9.736;2023-06-22T10:38:48;29.30;92.10
30648;DHT22;17683;53.360;9.736;2023-06-22T10:41:15;29.30;92.70
30648;DHT22;17683;53.360;9.736;2023-06-22T10:43:41;29.60;93.10
30648;DHT22;17683;53.360;9.736;2023-06-22T10:46:07;29.80;93.10
30648;DHT22;17683;53.360;9.736;2023-06-22T10:48:33;29.90;92.00
30648;DHT22;17683;53.360;9.736;2023-06-22T10:50:59;29.90;91.70
30648;DHT22;17683;53.360;9.736;2023-06-22T10:53:25;29.70;91.70
30648;DHT22;17683;53.360;9.736;2023-06-22T10:55:50;29.90;92.60
30648;DHT22;17683;53.360;9.736;2023-06-22T10:58:20;29.90;92.50
30648;DHT22;17683;53.360;9.736;2023-06-22T11:00:46;30.10;92.10
30648;DHT22;17683;53.360;9.736;2023-06-22T11:03:12;30.10;91.80
30648;DHT22;17683;53.360;9.736;2023-06-22T11:05:39;30.20;91.10
30648;DHT22;17683;53.360;9.736;2023-06-22T11:08:05;30.20;91.20
30648;DHT22;17683;53.360;9.736;2023-06-22T11:10:31;30.30;91.90
30648;DHT22;17683;53.360;9.736;2023-06-22T11:12:56;30.10;92.30
30648;DHT22;17683;53.360;9.736;2023-06-22T11:15:24;30.10;91.90
30648;DHT22;17683;53.360;9.736;2023-06-22T11:17:49;30.10;91.30
30648;DHT22;17683;53.360;9.736;2023-06-22T11:20:15;30.10;92.30
30648;DHT22;17683;53.360;9.736;2023-06-22T11:22:41;30.00;91.30
30648;DHT22;17683;53.360;9.736;2023-06-22T11:25:07;29.70;91.20
30648;DHT22;17683;53.360;9.736;2023-06-22T11:27:34;29.50;91.80
30648;DHT22;17683;53.360;9.736;2023-06-22T11:30:00;29.30;91.80
30648;DHT22;17683;53.360;9.736;2023-06-22T11:32:26;29.30;92.20
30648;DHT22;17683;53.360;9.736;2023-06-22T11:34:52;29.40;92.30
30648;DHT22;17683;53.360;9.736;2023-06-22T11:37:17;29.40;92.20
30648;DHT22;17683;53.360;9.736;2023-06-22T11:39:43;29.40;92.90
30648;DHT22;17683;53.360;9.736;2023-06-22T11:42:09;29.40;92.60
30648;DHT22;17683;53.360;9.736;2023-06-22T11:44:35;29.40;91.70
30648;DHT22;17683;53.360;9.736;2023-06-22T11:47:01;29.50;91.50
30648;DHT22;17683;53.360;9.736;2023-06-22T11:49:32;29.80;91.90
30648;DHT22;17683;53.360;9.736;2023-06-22T11:51:58;30.00;92.40
30648;DHT22;17683;53.360;9.736;2023-06-22T11:54:23;29.90;91.40
30648;DHT22;17683;53.360;9.736;2023-06-22T11:56:49;29.80;91.80
30648;DHT22;17683;53.360;9.736;2023-06-22T11:59:15;29.80;92.30
30648;DHT22;17683;53.360;9.736;2023-06-22T12:01:40;29.80;92.10
30648;DHT22;17683;53.360;9.736;2023-06-22T12:04:06;29.70;91.60
30648;DHT22;17683;53.360;9.736;2023-06-22T12:06:32;29.50;92.20
30648;DHT22;17683;53.360;9.736;2023-06-22T12:08:59;29.40;92.60
30648;DHT22;17683;53.360;9.736;2023-06-22T12:11:24;29.50;92.90
30648;DHT22;17683;53.360;9.736;2023-06-22T12:13:50;29.50;92.70
30648;DHT22;17683;53.360;9.736;2023-06-22T12:16:16;29.50;92.80
30648;DHT22;17683;53.360;9.736;2023-06-22T12:18:42;29.50;92.20
30648;DHT22;17683;53.360;9.736;2023-06-22T12:21:08;29.40;93.10
30648;DHT22;17683;53.360;9.736;2023-06-22T12:23:33;29.20;92.70
30648;DHT22;17683;53.360;9.736;2023-06-22T12:25:59;29.00;92.70
30648;DHT22;17683;53.360;9.736;2023-06-22T12:28:26;28.90;92.80
30648;DHT22;17683;53.360;9.736;2023-06-22T12:30:52;28.90;92.90
30648;DHT22;17683;53.360;9.736;2023-06-22T12:33:18;29.00;94.20
30648;DHT22;17683;53.360;9.736;2023-06-22T12:35:44;28.90;93.60
30648;DHT22;17683;53.360;9.736;2023-06-22T12:38:10;28.90;93.20
30648;DHT22;17683;53.360;9.736;2023-06-22T12:40:36;29.00;93.50
30648;DHT22;17683;53.360;9.736;2023-06-22T12:43:02;28.80;93.00
30648;DHT22;17683;53.360;9.736;2023-06-22T12:45:28;28.80;93.20
30648;DHT22;17683;53.360;9.736;2023-06-22T12:47:57;28.80;94.10
30648;DHT22;17683;53.360;9.736;2023-06-22T12:50:23;28.90;93.10
30648;DHT22;17683;53.360;9.736;2023-06-22T12:52:48;28.60;93.40
30648;DHT22;17683;53.360;9.736;2023-06-22T12:55:14;28.70;93.80
30648;DHT22;17683;53.360;9.736;2023-06-22T12:57:40;28.60;93.50
30648;DHT22;17683;53.360;9.736;2023-06-22T13:00:06;28.60;93.40
30648;DHT22;17683;53.360;9.736;2023-06-22T13:02:33;28.70;93.80
30648;DHT22;17683;53.360;9.736;2023-06-22T13:04:59;28.60;93.40
30648;DHT22;17683;53.360;9.736;2023-06-22T13:07:24;28.50;93.80
30648;DHT22;17683;53.360;9.736;2023-06-22T13:09:50;28.50;93.50
30648;DHT22;17683;53.360;9.736;2023-06-22T13:12:17;28.40;93.70
30648;DHT22;17683;53.360;9.736;2023-06-22T13:14:43;28.30;93.80
30648;DHT22;17683;53.360;9.736;2023-06-22T13:17:09;28.40;94.60
30648;DHT22;17683;53.360;9.736;2023-06-22T13:19:35;28.20;93.80
30648;DHT22;17683;53.360;9.736;2023-06-22T13:22:00;28.20;94.70
30648;DHT22;17683;53.360;9.736;2023-06-22T13:24:27;28.10;94.10
30648;DHT22;17683;53.360;9.736;2023-06-22T13:26:53;28.10;94.30
30648;DHT22;17683;53.360;9.736;2023-06-22T13:29:19;28.00;95.80
30648;DHT22;17683;53.360;9.736;2023-06-22T13:31:44;28.00;94.70
30648;DHT22;17683;53.360;9.736;2023-06-22T13:34:10;27.90;95.20
30648;DHT22;17683;53.360;9.736;2023-06-22T13:36:36;28.00;95.20
30648;DHT22;17683;53.360;9.736;2023-06-22T13:39:02;27.90;94.90
30648;DHT22;17683;53.360;9.736;2023-06-22T13:41:29;27.80;94.90
30648;DHT22;17683;53.360;9.736;2023-06-22T13:43:54;27.70;94.90
30648;DHT22;17683;53.360;9.736;2023-06-22T13:46:20;27.60;94.90
30648;DHT22;17683;53.360;9.736;2023-06-22T13:48:46;27.30;96.30
30648;DHT22;17683;53.360;9.736;2023-06-22T13:51:11;27.20;96.30
30648;DHT22;17683;53.360;9.736;2023-06-22T13:53:37;27.20;95.80
30648;DHT22;17683;53.360;9.736;2023-06-22T13:56:03;27.10;96.80
30648;DHT22;17683;53.360;9.736;2023-06-22T13:58:29;27.00;96.40
30648;DHT22;17683;53.360;9.736;2023-06-22T14:00:54;26.90;97.50
30648;DHT22;17683;53.360;9.736;2023-06-22T14:03:20;26.60;99.10
30648;DHT22;17683;53.360;9.736;2023-06-22T14:05:46;26.50;99.70
30648;DHT22;17683;53.360;9.736;2023-06-22T14:08:12;26.40;99.90
30648;DHT22;17683;53.360;9.736;2023-06-22T14:10:38;26.20;99.90
30648;DHT22;17683;53.360;9.736;2023-06-22T14:13:03;26.20;99.90
30648;DHT22;17683;53.360;9.736;2023-06-22T14:15:31;26.10;99.90
30648;DHT22;17683;53.360;9.736;2023-06-22T14:17:57;26.10;99.90
30648;DHT22;17683;53.360;9.736;2023-06-22T14:20:23;25.90;99.70
30648;DHT22;17683;53.360;9.736;2023-06-22T14:22:48;25.90;99.90
30648;DHT22;17683;53.360;9.736;2023-06-22T14:25:14;26.00;99.90
30648;DHT22;17683;53.360;9.736;2023-06-22T14:27:40;26.10;99.90
30648;DHT22;17683;53.360;9.736;2023-06-22T14:30:06;26.20;99.90
30648;DHT22;17683;53.360;9.736;2023-06-22T14:32:32;26.30;99.90
30648;DHT22;17683;53.360;9.736;2023-06-22T14:34:57;26.50;99.80
30648;DHT22;17683;53.360;9.736;2023-06-22T14:37:23;26.60;98.90
30648;DHT22;17683;53.360;9.736;2023-06-22T14:39:49;26.60;98.10
30648;DHT22;17683;53.360;9.736;2023-06-22T14:42:14;26.70;98.20
30648;DHT22;17683;53.360;9.736;2023-06-22T14:44:40;26.80;97.70
30648;DHT22;17683;53.360;9.736;2023-06-22T14:47:06;26.80;97.70
30648;DHT22;17683;53.360;9.736;2023-06-22T14:49:32;26.80;97.80
30648;DHT22;17683;53.360;9.736;2023-06-22T14:51:57;26.80;97.70
30648;DHT22;17683;53.360;9.736;2023-06-22T14:54:23;26.80;97.50
30648;DHT22;17683;53.360;9.736;2023-06-22T14:56:50;26.80;97.90
30648;DHT22;17683;53.360;9.736;2023-06-22T14:59:16;26.80;97.40
30648;DHT22;17683;53.360;9.736;2023-06-22T15:01:42;26.70;97.70
30648;DHT22;17683;53.360;9.736;2023-06-22T15:04:07;26.70;97.40
30648;DHT22;17683;53.360;9.736;2023-06-22T15:06:33;26.70;97.50
30648;DHT22;17683;53.360;9.736;2023-06-22T15:08:59;26.70;98.80
30648;DHT22;17683;53.360;9.736;2023-06-22T15:11:24;26.60;98.20
30648;DHT22;17683;53.360;9.736;2023-06-22T15:13:50;26.60;98.00
30648;DHT22;17683;53.360;9.736;2023-06-22T15:16:16;26.50;97.90
30648;DHT22;17683;53.360;9.736;2023-06-22T15:18:41;26.40;98.70
30648;DHT22;17683;53.360;9.736;2023-06-22T15:21:07;26.40;98.30
30648;DHT22;17683;53.360;9.736;2023-06-22T15:23:33;26.40;97.90
30648;DHT22;17683;53.360;9.736;2023-06-22T15:26:02;26.30;98.20
30648;DHT22;17683;53.360;9.736;2023-06-22T15:28:29;26.30;98.90
30648;DHT22;17683;53.360;9.736;2023-06-22T15:30:54;26.20;97.90
30648;DHT22;17683;53.360;9.736;2023-06-22T15:33:21;26.20;98.40
30648;DHT22;17683;53.360;9.736;2023-06-22T15:35:47;26.10;98.60
30648;DHT22;17683;53.360;9.736;2023-06-22T15:38:12;26.00;98.90
30648;DHT22;17683;53.360;9.736;2023-06-22T15:40:41;26.00;99.30